Time;durP1;ratioP1;P1;durP2;ratioP2;P2;SDS_P1;SDS_P2;PMS_P1;PMS_P2;Temp;Humidity;BMP_temperature;BMP_pressure;BME280_temperature;BME280_humidity;BME280_pressure;Samples;Min_cycle;Max_cycle;Signal;HPM_P1;HPM_P2
2022/10/22 00:02:18;;;;;;;3.30;2.53;;;;;;;;;;5049279;28;20237;-81
2022/10/22 00:04:45;;;;;;;3.70;3.10;;;;;;;;;;5051209;28;20264;-81
2022/10/22 00:07:14;;;;;;;4.20;3.10;;;;;;;;;;5050618;28;20241;-81
2022/10/22 00:09:41;;;;;;;7.20;3.47;;;;;;;;;;5050876;28;20217;-81
2022/10/22 00:12:08;;;;;;;8.50;3.10;;;;;;;;;;5042703;28;20225;-81
2022/10/22 00:14:35;;;;;;;3.07;2.80;;;;;;;;;;5042715;28;20674;-81
2022/10/22 00:17:02;;;;;;;3.60;2.30;;;;;;;;;;5041955;28;20721;-81
2022/10/22 00:19:29;;;;;;;3.73;3.03;;;;;;;;;;5043908;28;20663;-81
2022/10/22 00:21:57;;;;;;;3.23;2.93;;;;;;;;;;5046697;28;20206;-81
2022/10/22 00:24:25;;;;;;;4.17;3.23;;;;;;;;;;5051097;28;20222;-81
2022/10/22 00:26:53;;;;;;;4.40;2.57;;;;;;;;;;5049198;28;20229;-81
2022/10/22 00:29:20;;;;;;;5.03;2.20;;;;;;;;;;5049957;28;20689;-81
2022/10/22 00:31:48;;;;;;;2.13;2.00;;;;;;;;;;5044998;28;20229;-81
2022/10/22 00:34:16;;;;;;;4.20;1.93;;;;;;;;;;5048039;28;20221;-81
2022/10/22 00:36:44;;;;;;;2.37;1.70;;;;;;;;;;5050923;28;20236;-81
2022/10/22 00:39:11;;;;;;;2.93;1.70;;;;;;;;;;5048520;28;20206;-81
2022/10/22 00:41:40;;;;;;;3.73;1.60;;;;;;;;;;5050071;28;20289;-82
2022/10/22 00:44:07;;;;;;;2.60;1.33;;;;;;;;;;5050936;28;20245;-81
2022/10/22 00:46:34;;;;;;;4.33;1.60;;;;;;;;;;5046968;28;20217;-81
2022/10/22 00:49:03;;;;;;;2.57;1.40;;;;;;;;;;5048508;28;20225;-81
2022/10/22 00:51:32;;;;;;;1.23;1.20;;;;;;;;;;5049996;28;20206;-81
2022/10/22 00:54:02;;;;;;;2.07;1.87;;;;;;;;;;5050450;28;20226;-81
2022/10/22 00:56:29;;;;;;;2.07;1.40;;;;;;;;;;5047077;28;20216;-81
2022/10/22 00:58:59;;;;;;;2.57;1.50;;;;;;;;;;5043153;28;20706;-83
2022/10/22 01:01:28;;;;;;;2.63;1.40;;;;;;;;;;5047946;28;20202;-82
2022/10/22 01:03:55;;;;;;;1.60;1.20;;;;;;;;;;5035011;28;20230;-82
2022/10/22 01:06:25;;;;;;;3.67;1.33;;;;;;;;;;5046505;28;20209;-81
2022/10/22 01:08:57;;;;;;;1.40;1.30;;;;;;;;;;5050178;28;20247;-82
2022/10/22 01:11:27;;;;;;;1.13;1.07;;;;;;;;;;5050914;28;20198;-81
2022/10/22 01:13:58;;;;;;;3.90;1.10;;;;;;;;;;5051623;28;20233;-83
2022/10/22 01:16:30;;;;;;;1.53;1.43;;;;;;;;;;5053493;28;20198;-83
2022/10/22 01:19:01;;;;;;;1.50;1.40;;;;;;;;;;5053478;28;20230;-82
2022/10/22 01:21:33;;;;;;;2.00;1.30;;;;;;;;;;5053506;28;20213;-82
2022/10/22 01:24:10;;;;;;;1.10;1.10;;;;;;;;;;5054510;28;20297;-82
2022/10/22 01:26:42;;;;;;;1.53;1.20;;;;;;;;;;5049256;28;20198;-85
2022/10/22 01:29:13;;;;;;;1.03;1.00;;;;;;;;;;5051271;28;20240;-83
2022/10/22 01:31:44;;;;;;;2.33;1.43;;;;;;;;;;5047038;28;20221;-83
2022/10/22 01:34:12;;;;;;;3.90;1.20;;;;;;;;;;5053330;28;20227;-83
2022/10/22 01:36:40;;;;;;;3.60;1.40;;;;;;;;;;5054347;28;20206;-82
2022/10/22 01:39:08;;;;;;;3.03;1.33;;;;;;;;;;5053857;28;20653;-81
2022/10/22 01:41:35;;;;;;;1.57;1.37;;;;;;;;;;5054551;28;20198;-83
2022/10/22 01:44:02;;;;;;;1.40;1.30;;;;;;;;;;5046062;28;21098;-81
2022/10/22 01:46:30;;;;;;;3.00;1.37;;;;;;;;;;5054728;28;20209;-81
2022/10/22 01:49:05;;;;;;;2.50;1.37;;;;;;;;;;5053563;28;20241;-81
2022/10/22 01:51:43;;;;;;;1.83;1.37;;;;;;;;;;5053969;28;20202;-81
2022/10/22 01:54:18;;;;;;;1.70;1.60;;;;;;;;;;5046467;28;20218;-82
2022/10/22 01:56:53;;;;;;;2.70;1.20;;;;;;;;;;5053412;28;20670;-82
2022/10/22 01:59:25;;;;;;;1.40;1.30;;;;;;;;;;5054185;28;20197;-82
2022/10/22 02:01:56;;;;;;;3.93;1.33;;;;;;;;;;5054199;28;20582;-81
2022/10/22 02:04:26;;;;;;;1.53;1.40;;;;;;;;;;5059275;28;20338;-81
2022/10/22 02:06:55;;;;;;;1.70;1.37;;;;;;;;;;5052077;28;20210;-81
2022/10/22 02:09:23;;;;;;;4.33;1.30;;;;;;;;;;5053956;28;20212;-81
2022/10/22 02:11:51;;;;;;;1.90;1.53;;;;;;;;;;5053801;28;20198;-82
2022/10/22 02:14:19;;;;;;;2.47;1.30;;;;;;;;;;5051005;28;20241;-81
2022/10/22 02:16:48;;;;;;;1.60;1.33;;;;;;;;;;5047948;28;20205;-82
2022/10/22 02:19:20;;;;;;;2.90;1.33;;;;;;;;;;5045515;28;20204;-82
2022/10/22 02:21:47;;;;;;;2.23;1.27;;;;;;;;;;5040034;28;20218;-83
2022/10/22 02:24:15;;;;;;;1.43;1.33;;;;;;;;;;5051952;28;20230;-82
2022/10/22 02:26:46;;;;;;;1.87;1.20;;;;;;;;;;5053795;28;20725;-82
2022/10/22 02:29:15;;;;;;;1.27;1.17;;;;;;;;;;5051687;28;20663;-82
2022/10/22 02:31:44;;;;;;;1.43;1.33;;;;;;;;;;5053523;28;20225;-82
2022/10/22 02:34:13;;;;;;;4.13;1.43;;;;;;;;;;5053152;28;20245;-82
2022/10/22 02:36:42;;;;;;;2.10;1.20;;;;;;;;;;5048814;28;20210;-82
2022/10/22 02:39:10;;;;;;;1.83;1.40;;;;;;;;;;5049410;28;20198;-83
2022/10/22 02:41:37;;;;;;;2.87;1.70;;;;;;;;;;5045480;28;20207;-82
2022/10/22 02:44:08;;;;;;;1.53;1.43;;;;;;;;;;5049858;28;20238;-81
2022/10/22 02:46:35;;;;;;;1.37;1.27;;;;;;;;;;5052175;28;21962;-83
2022/10/22 02:49:02;;;;;;;1.40;1.30;;;;;;;;;;5046799;28;20201;-81
2022/10/22 02:51:29;;;;;;;2.30;1.83;;;;;;;;;;5049478;28;20209;-81
2022/10/22 02:53:57;;;;;;;2.37;1.60;;;;;;;;;;5052888;28;20249;-82
2022/10/22 02:56:25;;;;;;;1.90;1.40;;;;;;;;;;5050684;28;20206;-81
2022/10/22 02:58:52;;;;;;;1.63;1.50;;;;;;;;;;5051686;28;20226;-82
2022/10/22 03:01:19;;;;;;;2.07;1.57;;;;;;;;;;5050133;28;20205;-81
2022/10/22 03:03:46;;;;;;;1.27;1.13;;;;;;;;;;5038553;28;20241;-81
2022/10/22 03:06:13;;;;;;;3.27;1.40;;;;;;;;;;5053299;28;20202;-81
2022/10/22 03:08:40;;;;;;;1.40;1.30;;;;;;;;;;5047044;28;20700;-81
2022/10/22 03:11:09;;;;;;;2.43;1.27;;;;;;;;;;5047343;28;20256;-82
2022/10/22 03:13:36;;;;;;;1.30;1.30;;;;;;;;;;5044588;28;20245;-82
2022/10/22 03:16:03;;;;;;;2.17;1.20;;;;;;;;;;5052552;28;20205;-82
2022/10/22 03:18:30;;;;;;;2.07;1.40;;;;;;;;;;5045858;28;20223;-81
2022/10/22 03:21:05;;;;;;;3.90;1.40;;;;;;;;;;5052607;28;20289;-81
2022/10/22 03:23:32;;;;;;;1.63;1.20;;;;;;;;;;5052105;28;20230;-82
2022/10/22 03:25:59;;;;;;;1.50;1.40;;;;;;;;;;5052720;28;20226;-81
2022/10/22 03:28:28;;;;;;;1.60;1.50;;;;;;;;;;5052286;28;20238;-81
2022/10/22 03:30:55;;;;;;;1.57;1.30;;;;;;;;;;5046761;28;20582;-81
2022/10/22 03:33:22;;;;;;;1.53;1.43;;;;;;;;;;5050843;28;20614;-82
2022/10/22 03:35:49;;;;;;;1.30;1.27;;;;;;;;;;5049521;28;20202;-81
2022/10/22 03:38:16;;;;;;;2.70;1.50;;;;;;;;;;5051452;28;20225;-81
2022/10/22 03:40:44;;;;;;;1.60;1.50;;;;;;;;;;5052038;28;20701;-81
2022/10/22 03:43:11;;;;;;;3.30;1.40;;;;;;;;;;5047238;28;20236;-82
2022/10/22 03:45:40;;;;;;;3.60;1.43;;;;;;;;;;5050361;28;20230;-81
2022/10/22 03:48:07;;;;;;;1.23;1.23;;;;;;;;;;5045237;28;20239;-81
2022/10/22 03:50:34;;;;;;;4.93;2.07;;;;;;;;;;5051374;28;20209;-81
2022/10/22 03:53:01;;;;;;;3.67;1.70;;;;;;;;;;5050439;28;20234;-81
2022/10/22 03:55:28;;;;;;;1.60;1.50;;;;;;;;;;5045886;28;20199;-81
2022/10/22 03:57:55;;;;;;;3.30;2.30;;;;;;;;;;5050958;28;20230;-81
2022/10/22 04:00:22;;;;;;;1.70;1.50;;;;;;;;;;5040659;28;20209;-81
2022/10/22 04:02:51;;;;;;;1.70;1.60;;;;;;;;;;5050187;28;20248;-82
2022/10/22 04:05:18;;;;;;;1.37;1.37;;;;;;;;;;5051431;28;20236;-81
2022/10/22 04:07:45;;;;;;;1.40;1.30;;;;;;;;;;5043746;28;20253;-81
2022/10/22 04:10:12;;;;;;;1.90;1.70;;;;;;;;;;5047314;28;20198;-81
2022/10/22 04:12:39;;;;;;;3.03;1.50;;;;;;;;;;5048087;28;20233;-81
2022/10/22 04:15:07;;;;;;;2.37;1.60;;;;;;;;;;5043702;28;20202;-81
2022/10/22 04:17:34;;;;;;;2.43;1.70;;;;;;;;;;5050577;28;20720;-81
2022/10/22 04:20:04;;;;;;;2.40;1.53;;;;;;;;;;5051090;28;20205;-81
2022/10/22 04:22:33;;;;;;;1.63;1.53;;;;;;;;;;5042054;28;20241;-81
2022/10/22 04:25:00;;;;;;;3.33;1.60;;;;;;;;;;5051377;28;20225;-81
2022/10/22 04:27:32;;;;;;;2.20;1.80;;;;;;;;;;5050210;28;20225;-81
2022/10/22 04:29:59;;;;;;;1.33;1.27;;;;;;;;;;5049989;28;20221;-81
2022/10/22 04:32:26;;;;;;;5.20;1.80;;;;;;;;;;5050042;28;20237;-81
2022/10/22 04:34:53;;;;;;;2.53;1.70;;;;;;;;;;5049446;28;20577;-81
2022/10/22 04:37:22;;;;;;;4.60;1.90;;;;;;;;;;5037695;28;20241;-81
2022/10/22 04:39:49;;;;;;;3.10;2.80;;;;;;;;;;5050545;28;20763;-81
2022/10/22 04:42:16;;;;;;;3.40;1.70;;;;;;;;;;5050377;28;20573;-81
2022/10/22 04:44:43;;;;;;;2.30;1.70;;;;;;;;;;5049170;28;20234;-81
2022/10/22 04:47:10;;;;;;;3.40;2.03;;;;;;;;;;5049469;28;20234;-81
2022/10/22 04:49:38;;;;;;;5.50;1.47;;;;;;;;;;5049360;28;20214;-81
2022/10/22 04:52:05;;;;;;;3.27;1.70;;;;;;;;;;5050276;28;20626;-82
2022/10/22 04:54:33;;;;;;;3.67;1.83;;;;;;;;;;5035733;28;20195;-81
2022/10/22 04:57:00;;;;;;;5.90;1.80;;;;;;;;;;5039132;28;20234;-82
2022/10/22 04:59:27;;;;;;;2.87;1.97;;;;;;;;;;5049742;28;20222;-82
2022/10/22 05:01:54;;;;;;;4.37;1.80;;;;;;;;;;5044114;28;21888;-82
2022/10/22 05:04:21;;;;;;;1.83;1.73;;;;;;;;;;5044024;28;20224;-82
2022/10/22 05:06:48;;;;;;;2.00;1.90;;;;;;;;;;5050386;28;20217;-82
2022/10/22 05:09:16;;;;;;;2.70;1.70;;;;;;;;;;5050729;28;20210;-82
2022/10/22 05:11:47;;;;;;;1.70;1.60;;;;;;;;;;5050261;28;20217;-82
2022/10/22 05:14:15;;;;;;;1.83;1.67;;;;;;;;;;5051317;28;20230;-83
2022/10/22 05:16:43;;;;;;;3.17;2.00;;;;;;;;;;5051105;28;20845;-84
2022/10/22 05:19:15;;;;;;;1.93;1.80;;;;;;;;;;5051247;28;20248;-83
2022/10/22 05:21:42;;;;;;;1.97;1.83;;;;;;;;;;5051063;28;20195;-83
2022/10/22 05:24:09;;;;;;;2.37;1.90;;;;;;;;;;5051193;28;20222;-83
2022/10/22 05:26:36;;;;;;;2.63;1.87;;;;;;;;;;5031161;28;20227;-83
2022/10/22 05:29:04;;;;;;;2.07;1.80;;;;;;;;;;5041691;28;20206;-83
2022/10/22 05:31:31;;;;;;;1.90;1.80;;;;;;;;;;5045174;28;20210;-83
2022/10/22 05:33:58;;;;;;;2.97;1.70;;;;;;;;;;5033403;28;20242;-83
2022/10/22 05:36:26;;;;;;;4.67;1.80;;;;;;;;;;5044010;28;20199;-83
2022/10/22 05:38:53;;;;;;;2.90;1.80;;;;;;;;;;5050336;28;20237;-83
2022/10/22 05:41:22;;;;;;;3.27;1.70;;;;;;;;;;5051182;28;20202;-83
2022/10/22 05:43:49;;;;;;;2.97;1.57;;;;;;;;;;5050651;28;20241;-83
2022/10/22 05:46:19;;;;;;;1.40;1.30;;;;;;;;;;5051280;28;20217;-83
2022/10/22 05:48:49;;;;;;;3.00;1.60;;;;;;;;;;5050443;28;20230;-83
2022/10/22 05:51:16;;;;;;;1.70;1.57;;;;;;;;;;5051061;28;20217;-83
2022/10/22 05:53:43;;;;;;;1.73;1.50;;;;;;;;;;5050297;28;20241;-83
2022/10/22 05:56:12;;;;;;;1.50;1.40;;;;;;;;;;5051307;28;20202;-83
2022/10/22 05:58:39;;;;;;;1.93;1.80;;;;;;;;;;5041822;28;20226;-82
2022/10/22 06:01:07;;;;;;;2.20;1.53;;;;;;;;;;5044138;28;20202;-83
2022/10/22 06:03:35;;;;;;;2.27;1.50;;;;;;;;;;5050541;28;20628;-83
2022/10/22 06:06:05;;;;;;;4.00;1.77;;;;;;;;;;5054485;28;20232;-82
2022/10/22 06:08:33;;;;;;;3.30;2.73;;;;;;;;;;5042287;28;20235;-82
2022/10/22 06:11:00;;;;;;;1.43;1.30;;;;;;;;;;5035317;28;20237;-82
2022/10/22 06:13:27;;;;;;;2.43;1.60;;;;;;;;;;5053686;28;20248;-83
2022/10/22 06:15:54;;;;;;;7.00;1.97;;;;;;;;;;5053887;28;20201;-83
2022/10/22 06:18:21;;;;;;;1.70;1.60;;;;;;;;;;5033993;28;20246;-83
2022/10/22 06:20:50;;;;;;;2.47;1.90;;;;;;;;;;5052257;28;20208;-82
2022/10/22 06:23:17;;;;;;;1.77;1.67;;;;;;;;;;5050462;28;20234;-83
2022/10/22 06:25:44;;;;;;;4.07;2.00;;;;;;;;;;5053476;28;20226;-83
2022/10/22 06:28:11;;;;;;;4.17;1.83;;;;;;;;;;5052589;28;20233;-83
2022/10/22 06:30:38;;;;;;;3.80;1.80;;;;;;;;;;5046857;28;20214;-82
2022/10/22 06:33:05;;;;;;;2.37;1.67;;;;;;;;;;5045113;28;20239;-83
2022/10/22 06:35:33;;;;;;;2.30;1.53;;;;;;;;;;5045410;28;20205;-82
2022/10/22 06:38:01;;;;;;;3.73;1.83;;;;;;;;;;5052087;28;20775;-82
2022/10/22 06:40:29;;;;;;;2.03;1.93;;;;;;;;;;5041019;28;20217;-82
2022/10/22 06:42:56;;;;;;;2.93;1.63;;;;;;;;;;5048391;28;20733;-81
2022/10/22 06:45:23;;;;;;;2.80;1.30;;;;;;;;;;5053163;28;20218;-81
2022/10/22 06:47:50;;;;;;;1.97;1.70;;;;;;;;;;5054662;28;20238;-81
2022/10/22 06:50:17;;;;;;;2.43;2.10;;;;;;;;;;5058587;28;20778;-80
2022/10/22 06:52:44;;;;;;;3.47;1.70;;;;;;;;;;5044658;28;20245;-80
2022/10/22 06:55:13;;;;;;;3.87;1.77;;;;;;;;;;5044437;28;20190;-79
2022/10/22 06:57:40;;;;;;;2.93;1.40;;;;;;;;;;5036044;28;20711;-79
2022/10/22 07:00:08;;;;;;;1.33;1.23;;;;;;;;;;5033867;28;20211;-79
2022/10/22 07:02:35;;;;;;;1.50;1.40;;;;;;;;;;5050192;28;20729;-79
2022/10/22 07:05:02;;;;;;;2.60;2.40;;;;;;;;;;5053239;28;20216;-80
2022/10/22 07:07:29;;;;;;;4.17;3.77;;;;;;;;;;5052217;28;20230;-80
2022/10/22 07:09:56;;;;;;;3.50;3.00;;;;;;;;;;5052631;28;20209;-80
2022/10/22 07:12:25;;;;;;;1.63;1.53;;;;;;;;;;5044120;28;20234;-80
2022/10/22 07:14:52;;;;;;;1.83;1.73;;;;;;;;;;5053423;28;20825;-79
2022/10/22 07:17:19;;;;;;;3.50;1.83;;;;;;;;;;5052722;28;20230;-80
2022/10/22 07:19:46;;;;;;;1.40;1.30;;;;;;;;;;5046550;28;20214;-80
2022/10/22 07:22:13;;;;;;;1.40;1.30;;;;;;;;;;5043011;28;20705;-80
2022/10/22 07:24:40;;;;;;;1.50;1.40;;;;;;;;;;5051579;28;20564;-80
2022/10/22 07:27:07;;;;;;;2.00;1.30;;;;;;;;;;5042244;28;20353;-79
2022/10/22 07:29:36;;;;;;;1.50;1.40;;;;;;;;;;5035006;28;20221;-79
2022/10/22 07:32:03;;;;;;;6.60;1.50;;;;;;;;;;5052132;28;20724;-80
2022/10/22 07:34:30;;;;;;;1.70;1.40;;;;;;;;;;5052326;28;20202;-79
2022/10/22 07:36:58;;;;;;;1.30;1.30;;;;;;;;;;5051119;28;20240;-79
2022/10/22 07:39:25;;;;;;;1.50;1.40;;;;;;;;;;5051724;28;20202;-79
2022/10/22 07:41:52;;;;;;;1.33;1.20;;;;;;;;;;5047470;28;20260;-80
2022/10/22 07:44:19;;;;;;;2.60;1.43;;;;;;;;;;5045500;28;20221;-79
2022/10/22 07:46:48;;;;;;;3.30;1.40;;;;;;;;;;5039406;28;20225;-81
2022/10/22 07:49:15;;;;;;;1.43;1.00;;;;;;;;;;5052365;28;20206;-82
2022/10/22 07:51:42;;;;;;;1.10;1.10;;;;;;;;;;5052457;28;20204;-82
2022/10/22 07:54:09;;;;;;;2.87;1.20;;;;;;;;;;5045266;28;20230;-82
2022/10/22 07:56:36;;;;;;;1.90;1.30;;;;;;;;;;5051191;28;20666;-82
2022/10/22 07:59:03;;;;;;;1.50;1.40;;;;;;;;;;5033637;28;20695;-81
2022/10/22 08:01:30;;;;;;;2.17;1.60;;;;;;;;;;5036999;28;20206;-81
2022/10/22 08:03:59;;;;;;;5.37;1.60;;;;;;;;;;5032354;28;20234;-81
2022/10/22 08:06:26;;;;;;;1.33;1.23;;;;;;;;;;5032295;28;20235;-81
2022/10/22 08:08:53;;;;;;;1.83;1.10;;;;;;;;;;5044913;28;20697;-81
2022/10/22 08:11:20;;;;;;;1.50;1.33;;;;;;;;;;5050241;28;20214;-80
2022/10/22 08:13:47;;;;;;;2.97;1.30;;;;;;;;;;5043469;28;20283;-80
2022/10/22 08:16:15;;;;;;;1.10;1.10;;;;;;;;;;5043191;28;20198;-79
2022/10/22 08:18:42;;;;;;;8.33;2.00;;;;;;;;;;5048588;28;20226;-79
2022/10/22 08:21:10;;;;;;;1.50;1.40;;;;;;;;;;5051882;28;20665;-79
2022/10/22 08:23:37;;;;;;;1.33;1.10;;;;;;;;;;5051244;28;20257;-80
2022/10/22 08:26:04;;;;;;;4.13;1.20;;;;;;;;;;5057114;28;20304;-79
2022/10/22 08:28:35;;;;;;;2.10;1.00;;;;;;;;;;5049545;28;20240;-80
2022/10/22 08:31:02;;;;;;;0.93;0.80;;;;;;;;;;5048344;28;20891;-80
2022/10/22 08:33:30;;;;;;;1.07;1.00;;;;;;;;;;5050922;28;20238;-80
2022/10/22 08:35:57;;;;;;;1.30;1.20;;;;;;;;;;5052274;28;20206;-80
2022/10/22 08:38:25;;;;;;;2.47;1.50;;;;;;;;;;5044508;28;20230;-80
2022/10/22 08:40:53;;;;;;;2.20;1.00;;;;;;;;;;5051840;28;20202;-81
2022/10/22 08:43:30;;;;;;;2.27;1.13;;;;;;;;;;5037482;28;20249;-80
2022/10/22 08:46:04;;;;;;;2.80;1.23;;;;;;;;;;5046430;28;20677;-80
2022/10/22 08:48:39;;;;;;;0.70;0.70;;;;;;;;;;5049354;28;20244;-75
2022/10/22 08:51:08;;;;;;;1.17;1.07;;;;;;;;;;5051666;28;20213;-75
2022/10/22 08:53:39;;;;;;;1.43;1.07;;;;;;;;;;5049028;28;20234;-75
2022/10/22 08:56:06;;;;;;;2.33;1.10;;;;;;;;;;5050144;28;20573;-77
2022/10/22 08:58:36;;;;;;;1.13;0.80;;;;;;;;;;5039967;28;20223;-76
2022/10/22 09:01:06;;;;;;;1.17;0.90;;;;;;;;;;5039636;28;20289;-75
2022/10/22 09:03:37;;;;;;;1.13;1.03;;;;;;;;;;5046379;28;20232;-78
2022/10/22 09:06:08;;;;;;;3.93;1.00;;;;;;;;;;5047474;28;20229;-78
2022/10/22 09:08:37;;;;;;;0.77;0.77;;;;;;;;;;5043577;28;20729;-79
2022/10/22 09:11:07;;;;;;;2.23;1.30;;;;;;;;;;5051480;28;20206;-79
2022/10/22 09:13:34;;;;;;;0.90;0.90;;;;;;;;;;5047836;28;20235;-79
2022/10/22 09:16:10;;;;;;;0.97;0.97;;;;;;;;;;5031798;28;20206;-80
2022/10/22 09:18:42;;;;;;;1.80;1.20;;;;;;;;;;5031047;28;20576;-80
2022/10/22 09:21:16;;;;;;;1.03;0.93;;;;;;;;;;5031539;28;20214;-77
2022/10/22 09:23:50;;;;;;;1.03;0.90;;;;;;;;;;5030801;28;20244;-74
2022/10/22 09:26:18;;;;;;;1.60;1.03;;;;;;;;;;5031573;28;20219;-74
2022/10/22 09:28:49;;;;;;;0.87;0.87;;;;;;;;;;5046732;28;20237;-74
2022/10/22 09:31:17;;;;;;;0.73;0.70;;;;;;;;;;5051376;28;20241;-76
2022/10/22 09:33:46;;;;;;;1.43;0.80;;;;;;;;;;5054692;28;20724;-74
2022/10/22 09:36:14;;;;;;;0.73;0.70;;;;;;;;;;5055235;28;20202;-76
2022/10/22 09:38:45;;;;;;;1.70;0.80;;;;;;;;;;5054444;28;20241;-76
2022/10/22 09:41:13;;;;;;;1.83;1.00;;;;;;;;;;5047157;28;20202;-74
2022/10/22 09:43:41;;;;;;;4.13;1.10;;;;;;;;;;5034592;28;20260;-80
2022/10/22 09:46:08;;;;;;;2.30;0.90;;;;;;;;;;5035175;28;20222;-74
2022/10/22 09:48:38;;;;;;;9.73;2.03;;;;;;;;;;5034347;28;20238;-86
2022/10/22 09:51:07;;;;;;;1.67;1.10;;;;;;;;;;5035381;28;20206;-80
2022/10/22 09:53:37;;;;;;;1.60;1.40;;;;;;;;;;5034478;28;20245;-79
2022/10/22 09:56:07;;;;;;;1.50;1.40;;;;;;;;;;5054116;28;20190;-82
2022/10/22 09:58:43;;;;;;;2.23;1.20;;;;;;;;;;5054284;28;20603;-79
2022/10/22 10:01:17;;;;;;;2.20;1.10;;;;;;;;;;5050829;28;20677;-79
2022/10/22 10:03:44;;;;;;;1.20;1.10;;;;;;;;;;5053709;28;20245;-79
2022/10/22 10:06:11;;;;;;;4.90;1.20;;;;;;;;;;5054561;28;20222;-81
2022/10/22 10:08:38;;;;;;;1.00;1.00;;;;;;;;;;5041985;28;20230;-80
2022/10/22 10:11:08;;;;;;;4.27;0.90;;;;;;;;;;5034365;28;20207;-80
2022/10/22 10:13:44;;;;;;;1.10;1.00;;;;;;;;;;5033772;28;20245;-81
2022/10/22 10:16:19;;;;;;;1.27;1.00;;;;;;;;;;5032548;28;20693;-81
2022/10/22 10:18:57;;;;;;;0.90;0.90;;;;;;;;;;5032023;28;20899;-80
2022/10/22 10:21:27;;;;;;;3.20;1.10;;;;;;;;;;5033399;28;20538;-80
2022/10/22 10:23:58;;;;;;;18.13;9.85;;;;;;;;;;5033161;28;20239;-80
2022/10/22 10:26:28;;;;;;;60.55;29.38;;;;;;;;;;5033803;28;20674;-81
2022/10/22 10:29:00;;;;;;;67.53;39.00;;;;;;;;;;5033650;28;20238;-80
2022/10/22 10:31:34;;;;;;;3.35;1.40;;;;;;;;;;5034678;28;20191;-81
2022/10/22 10:34:06;;;;;;;37.35;20.02;;;;;;;;;;5033794;28;20257;-80
2022/10/22 10:36:37;;;;;;;3.28;1.88;;;;;;;;;;5047520;28;20194;-80
2022/10/22 10:39:07;;;;;;;2.22;1.70;;;;;;;;;;5073792;28;20236;-81
2022/10/22 10:41:38;;;;;;;9.32;2.10;;;;;;;;;;5072858;28;20200;-81
2022/10/22 10:44:20;;;;;;;9.02;6.70;;;;;;;;;;5073845;28;20261;-80
2022/10/22 10:46:55;;;;;;;2.78;1.70;;;;;;;;;;5071964;28;20237;-80
2022/10/22 10:49:25;;;;;;;4.07;2.20;;;;;;;;;;5060593;28;20208;-81
2022/10/22 10:51:58;;;;;;;1.63;1.52;;;;;;;;;;5036162;28;20214;-80
2022/10/22 10:54:32;;;;;;;29.52;20.10;;;;;;;;;;5034159;28;20313;-80
2022/10/22 10:57:01;;;;;;;5.32;4.47;;;;;;;;;;5033537;28;20233;-80
2022/10/22 10:59:33;;;;;;;1.90;1.27;;;;;;;;;;5033693;28;20698;-80
2022/10/22 11:02:13;;;;;;;3.72;1.15;;;;;;;;;;5033677;28;20226;-80
2022/10/22 11:04:56;;;;;;;7.25;4.22;;;;;;;;;;5033781;28;20202;-80
2022/10/22 11:07:26;;;;;;;11.80;8.85;;;;;;;;;;5033403;28;20234;-80
2022/10/22 11:09:55;;;;;;;4.60;2.47;;;;;;;;;;5033241;28;20613;-80
2022/10/22 11:12:26;;;;;;;2.60;1.90;;;;;;;;;;5032908;28;20230;-81
2022/10/22 11:14:59;;;;;;;5.07;3.65;;;;;;;;;;5033579;28;20650;-81
2022/10/22 11:17:30;;;;;;;3.20;2.17;;;;;;;;;;5038201;28;20229;-81
2022/10/22 11:20:01;;;;;;;4.30;2.63;;;;;;;;;;5053702;28;20206;-81
2022/10/22 11:22:31;;;;;;;2.03;1.30;;;;;;;;;;5052952;28;20602;-80
2022/10/22 11:25:00;;;;;;;1.25;1.20;;;;;;;;;;5053640;28;20206;-80
2022/10/22 11:27:30;;;;;;;1.55;0.98;;;;;;;;;;5052935;28;20238;-80
2022/10/22 11:30:00;;;;;;;1.55;0.95;;;;;;;;;;5040246;28;20203;-80
2022/10/22 11:32:28;;;;;;;4.38;1.65;;;;;;;;;;5048178;28;20234;-80
2022/10/22 11:34:58;;;;;;;1.75;1.33;;;;;;;;;;5053152;28;20562;-80
2022/10/22 11:37:26;;;;;;;2.60;1.00;;;;;;;;;;5052531;28;20304;-81
2022/10/22 11:39:55;;;;;;;3.33;1.10;;;;;;;;;;5052838;28;20214;-81
2022/10/22 11:42:23;;;;;;;4.38;2.22;;;;;;;;;;5048718;28;20227;-80
2022/10/22 11:45:00;;;;;;;3.90;1.98;;;;;;;;;;5033021;28;20571;-80
2022/10/22 11:47:29;;;;;;;4.30;2.58;;;;;;;;;;5032515;28;20238;-80
2022/10/22 11:49:58;;;;;;;5.80;4.60;;;;;;;;;;5032816;28;20208;-80
2022/10/22 11:52:27;;;;;;;2.08;1.10;;;;;;;;;;5032595;28;20231;-81
2022/10/22 11:54:56;;;;;;;4.45;2.08;;;;;;;;;;5032235;28;20202;-80
2022/10/22 11:57:27;;;;;;;2.22;1.55;;;;;;;;;;5032443;28;20695;-80
2022/10/22 11:59:57;;;;;;;1.20;1.00;;;;;;;;;;5032653;28;20210;-81
2022/10/22 12:02:39;;;;;;;2.42;1.10;;;;;;;;;;5032140;28;20280;-80
2022/10/22 12:05:25;;;;;;;1.60;0.98;;;;;;;;;;5030637;28;20234;-80
2022/10/22 12:07:55;;;;;;;8.60;4.97;;;;;;;;;;5031983;28;20237;-80
2022/10/22 12:10:25;;;;;;;1.77;1.17;;;;;;;;;;5032786;28;20215;-80
2022/10/22 12:12:56;;;;;;;1.50;1.40;;;;;;;;;;5032141;28;20249;-80
2022/10/22 12:15:24;;;;;;;4.57;1.77;;;;;;;;;;5032444;28;20215;-80
2022/10/22 12:17:52;;;;;;;2.47;1.70;;;;;;;;;;5031967;28;20238;-79
2022/10/22 12:20:19;;;;;;;2.00;1.35;;;;;;;;;;5032328;28;20206;-81
2022/10/22 12:22:46;;;;;;;7.55;5.30;;;;;;;;;;5031979;28;20231;-80
2022/10/22 12:25:21;;;;;;;7.22;5.00;;;;;;;;;;5032430;28;20218;-80
2022/10/22 12:27:52;;;;;;;2.65;1.38;;;;;;;;;;5031583;28;20257;-80
2022/10/22 12:30:21;;;;;;;8.68;6.22;;;;;;;;;;5032551;28;20241;-81
2022/10/22 12:32:48;;;;;;;1.77;1.15;;;;;;;;;;5031957;28;20256;-82
2022/10/22 12:35:16;;;;;;;1.98;1.20;;;;;;;;;;5038853;28;20685;-82
2022/10/22 12:37:44;;;;;;;2.08;1.23;;;;;;;;;;5036018;28;20246;-81
2022/10/22 12:40:18;;;;;;;5.50;1.58;;;;;;;;;;5032034;28;20961;-82
2022/10/22 12:42:49;;;;;;;1.88;1.65;;;;;;;;;;5031556;28;20244;-81
2022/10/22 12:45:16;;;;;;;2.38;1.27;;;;;;;;;;5032300;28;20203;-81
2022/10/22 12:47:46;;;;;;;2.55;1.90;;;;;;;;;;5031439;28;20246;-82
2022/10/22 12:50:18;;;;;;;2.30;1.35;;;;;;;;;;5032328;28;20667;-81
2022/10/22 12:52:46;;;;;;;4.53;1.45;;;;;;;;;;5044175;28;20234;-81
2022/10/22 12:55:15;;;;;;;1.92;1.60;;;;;;;;;;5052255;28;20601;-81
2022/10/22 12:57:46;;;;;;;1.25;1.05;;;;;;;;;;5051302;28;20742;-80
2022/10/22 13:00:24;;;;;;;1.45;1.05;;;;;;;;;;5052161;28;20201;-81
2022/10/22 13:02:52;;;;;;;2.05;1.00;;;;;;;;;;5050690;28;20283;-80
2022/10/22 13:05:26;;;;;;;3.00;1.00;;;;;;;;;;5031716;28;20222;-81
2022/10/22 13:07:54;;;;;;;1.77;1.20;;;;;;;;;;5034069;28;20242;-81
2022/10/22 13:10:24;;;;;;;2.22;1.05;;;;;;;;;;5036154;28;20207;-82
2022/10/22 13:12:56;;;;;;;2.50;2.15;;;;;;;;;;5035698;28;20235;-81
2022/10/22 13:15:33;;;;;;;3.92;2.83;;;;;;;;;;5036136;28;20379;-82
2022/10/22 13:18:02;;;;;;;1.73;1.05;;;;;;;;;;5035263;28;20230;-81
2022/10/22 13:20:29;;;;;;;2.78;1.50;;;;;;;;;;5035936;28;20570;-80
2022/10/22 13:22:59;;;;;;;1.55;1.20;;;;;;;;;;5035455;28;20234;-81
2022/10/22 13:25:27;;;;;;;7.00;2.40;;;;;;;;;;5035688;28;20211;-81
2022/10/22 13:27:57;;;;;;;4.18;1.50;;;;;;;;;;5035060;28;20317;-81
2022/10/22 13:30:25;;;;;;;3.28;1.20;;;;;;;;;;5035825;28;20210;-81
2022/10/22 13:32:56;;;;;;;1.25;1.08;;;;;;;;;;5034985;28;20238;-82
2022/10/22 13:35:24;;;;;;;3.05;1.20;;;;;;;;;;5035816;28;20211;-81
2022/10/22 13:37:51;;;;;;;2.22;1.50;;;;;;;;;;5034770;28;20230;-82
2022/10/22 13:40:19;;;;;;;3.20;1.30;;;;;;;;;;5035673;28;20210;-81
2022/10/22 13:42:46;;;;;;;3.30;1.13;;;;;;;;;;5035054;28;20245;-81
2022/10/22 13:45:14;;;;;;;3.35;2.45;;;;;;;;;;5035587;28;20210;-81
2022/10/22 13:47:42;;;;;;;3.20;2.55;;;;;;;;;;5034727;28;20235;-82
2022/10/22 13:50:13;;;;;;;2.20;1.08;;;;;;;;;;5035095;28;20667;-81
2022/10/22 13:52:42;;;;;;;4.85;4.03;;;;;;;;;;5034774;28;20593;-81
2022/10/22 13:55:17;;;;;;;2.88;1.65;;;;;;;;;;5035178;28;20210;-80
2022/10/22 13:57:45;;;;;;;3.60;1.77;;;;;;;;;;5034496;28;20237;-81
2022/10/22 14:00:15;;;;;;;2.72;1.25;;;;;;;;;;5035102;28;20688;-82
2022/10/22 14:02:42;;;;;;;3.83;2.60;;;;;;;;;;5034769;28;20234;-82
2022/10/22 14:05:10;;;;;;;2.58;2.00;;;;;;;;;;5034966;28;20572;-81
2022/10/22 14:07:37;;;;;;;1.85;1.20;;;;;;;;;;5034296;28;20317;-82
2022/10/22 14:10:04;;;;;;;2.05;1.00;;;;;;;;;;5034980;28;20217;-81
2022/10/22 14:12:31;;;;;;;4.28;1.52;;;;;;;;;;5034496;28;20238;-81
2022/10/22 14:14:58;;;;;;;9.30;5.35;;;;;;;;;;5035166;28;20194;-82
2022/10/22 14:17:27;;;;;;;2.30;1.30;;;;;;;;;;5033796;28;20801;-83
2022/10/22 14:19:54;;;;;;;1.85;0.80;;;;;;;;;;5034729;28;20206;-82
2022/10/22 14:22:28;;;;;;;4.60;1.83;;;;;;;;;;5034063;28;20242;-83
2022/10/22 14:24:56;;;;;;;1.65;1.10;;;;;;;;;;5034818;28;20197;-82
2022/10/22 14:27:23;;;;;;;1.55;1.08;;;;;;;;;;5034463;28;20235;-83
2022/10/22 14:29:51;;;;;;;1.38;0.93;;;;;;;;;;5034447;28;20207;-87
2022/10/22 14:32:20;;;;;;;3.25;1.42;;;;;;;;;;5034425;28;20226;-86
2022/10/22 14:34:48;;;;;;;3.25;1.17;;;;;;;;;;5035643;28;20625;-84
2022/10/22 14:37:18;;;;;;;4.88;1.20;;;;;;;;;;5034188;28;20581;-87
2022/10/22 14:39:50;;;;;;;5.93;1.60;;;;;;;;;;5034444;28;20641;-84
2022/10/22 14:42:18;;;;;;;1.25;1.15;;;;;;;;;;5034013;28;20309;-87
2022/10/22 14:44:45;;;;;;;1.80;1.10;;;;;;;;;;5034710;28;20214;-85
2022/10/22 14:47:12;;;;;;;3.78;1.15;;;;;;;;;;5033983;28;20227;-85
2022/10/22 14:49:39;;;;;;;2.97;0.88;;;;;;;;;;5034230;28;20210;-85
2022/10/22 14:52:08;;;;;;;2.22;1.20;;;;;;;;;;5033808;28;20234;-87
2022/10/22 14:54:35;;;;;;;3.63;1.52;;;;;;;;;;5034403;28;20218;-85